Time;durP1;ratioP1;P1;durP2;ratioP2;P2;SDS_P1;SDS_P2;PMS_P1;PMS_P2;Temp;Humidity;BMP_temperature;BMP_pressure;BME280_temperature;BME280_humidity;BME280_pressure;Samples;Min_cycle;Max_cycle;Signal;HPM_P1;HPM_P2
2023/05/10 00:00:57;;;;;;;16.38;14.77;;;17.40;1.00;;;;;;5034086;28;20554;-60
2023/05/10 00:03:23;;;;;;;16.45;14.95;;;17.40;1.00;;;;;;5033122;28;20112;-61
2023/05/10 00:05:48;;;;;;;17.75;15.95;;;17.30;1.00;;;;;;5032491;28;20483;-60
2023/05/10 00:08:14;;;;;;;19.25;17.35;;;17.20;1.00;;;;;;5033771;28;20029;-60
2023/05/10 00:10:40;;;;;;;18.23;16.38;;;17.30;1.00;;;;;;5034187;28;20049;-61
2023/05/10 00:13:06;;;;;;;18.25;16.35;;;17.30;1.00;;;;;;5033698;28;20426;-61
2023/05/10 00:15:32;;;;;;;18.65;16.65;;;17.30;1.00;;;;;;5033976;28;20025;-61
2023/05/10 00:17:57;;;;;;;19.88;18.08;;;17.10;1.00;;;;;;5033765;28;20018;-61
2023/05/10 00:20:23;;;;;;;18.17;16.48;;;17.00;1.00;;;;;;5033052;28;20449;-61
2023/05/10 00:22:49;;;;;;;18.05;16.23;;;17.20;1.00;;;;;;5032885;28;20498;-61
2023/05/10 00:25:14;;;;;;;18.85;16.30;;;17.20;1.00;;;;;;5031913;28;20072;-61
2023/05/10 00:27:40;;;;;;;19.73;17.75;;;17.10;1.00;;;;;;5033037;28;20029;-61
2023/05/10 00:30:06;;;;;;;19.23;17.23;;;17.20;1.00;;;;;;5033659;28;20029;-61
2023/05/10 00:32:32;;;;;;;19.42;17.42;;;17.20;1.00;;;;;;5032604;28;20505;-61
2023/05/10 00:34:58;;;;;;;18.88;16.73;;;17.10;1.00;;;;;;5030053;28;20096;-61
2023/05/10 00:37:23;;;;;;;18.13;16.20;;;17.20;1.00;;;;;;5022894;28;20038;-61
2023/05/10 00:39:49;;;;;;;17.25;15.68;;;17.00;1.00;;;;;;5031809;28;20026;-61
2023/05/10 00:42:15;;;;;;;17.20;15.38;;;16.90;1.00;;;;;;5031992;28;20061;-61
2023/05/10 00:44:41;;;;;;;18.30;16.42;;;16.90;1.00;;;;;;5033172;28;20056;-61
2023/05/10 00:47:07;;;;;;;17.10;15.43;;;17.10;1.00;;;;;;5033303;28;20375;-61
2023/05/10 00:49:32;;;;;;;17.77;15.88;;;17.00;1.00;;;;;;5033238;28;20032;-61
2023/05/10 00:51:58;;;;;;;17.30;15.50;;;17.10;1.00;;;;;;5033082;28;20026;-61
2023/05/10 00:54:24;;;;;;;16.20;14.60;;;17.10;1.00;;;;;;5028254;28;20033;-61
2023/05/10 00:56:50;;;;;;;15.23;13.82;;;17.00;1.00;;;;;;5030170;28;20048;-60
2023/05/10 00:59:17;;;;;;;15.68;14.15;;;17.00;1.00;;;;;;5033049;28;20049;-61
2023/05/10 01:01:44;;;;;;;15.02;13.45;;;16.70;1.00;;;;;;5032426;28;20037;-61
2023/05/10 01:04:12;;;;;;;15.23;13.63;;;16.70;1.00;;;;;;5031185;28;20475;-61
2023/05/10 01:06:38;;;;;;;14.82;13.40;;;16.70;1.00;;;;;;5031142;28;20032;-61
2023/05/10 01:09:04;;;;;;;15.48;13.88;;;16.70;1.00;;;;;;5031825;28;20037;-61
2023/05/10 01:11:30;;;;;;;16.08;14.45;;;16.60;1.00;;;;;;5030480;28;20072;-61
2023/05/10 01:13:57;;;;;;;15.20;13.60;;;16.70;1.00;;;;;;5031256;28;20053;-61
2023/05/10 01:16:24;;;;;;;15.68;13.98;;;16.70;1.00;;;;;;5032199;28;20056;-61
2023/05/10 01:18:51;;;;;;;15.40;13.85;;;16.60;1.00;;;;;;5032010;28;20570;-61
2023/05/10 01:21:44;;;;;;;16.83;15.15;;;16.70;1.00;;;;;;5031650;28;20116;-61
2023/05/10 01:24:16;;;;;;;16.67;15.00;;;16.60;1.00;;;;;;5025793;28;20118;-61
2023/05/10 01:26:48;;;;;;;17.20;15.40;;;16.60;1.00;;;;;;5031401;28;20112;-61
2023/05/10 01:29:50;;;;;;;16.10;14.50;;;16.70;1.00;;;;;;5030004;28;20045;-61
2023/05/10 01:32:47;;;;;;;15.13;13.52;;;16.70;1.00;;;;;;5031090;28;20104;-61
2023/05/10 01:35:23;;;;;;;16.08;14.38;;;16.70;1.00;;;;;;5030762;28;20041;-61
2023/05/10 01:38:18;;;;;;;17.33;15.52;;;16.70;1.00;;;;;;5029930;28;20107;-61
2023/05/10 01:41:18;;;;;;;16.13;14.57;;;16.80;1.00;;;;;;5060158;28;20822;-61
2023/05/10 01:44:10;;;;;;;16.25;14.55;;;16.80;1.00;;;;;;5026328;28;20026;-61
2023/05/10 01:46:38;;;;;;;16.45;14.85;;;16.70;1.00;;;;;;5026227;28;20048;-61
2023/05/10 01:49:09;;;;;;;16.30;14.05;;;16.80;1.00;;;;;;5031638;28;20033;-61
2023/05/10 01:51:46;;;;;;;16.10;14.43;;;16.80;1.00;;;;;;5029897;28;20498;-61
2023/05/10 01:54:14;;;;;;;18.13;14.27;;;16.70;1.00;;;;;;5031805;28;20041;-61
2023/05/10 01:56:41;;;;;;;17.02;15.23;;;16.70;1.00;;;;;;5035080;28;20029;-61
2023/05/10 01:59:15;;;;;;;15.07;13.57;;;16.70;1.00;;;;;;5034410;28;20441;-61
2023/05/10 02:01:42;;;;;;;17.33;15.45;;;16.70;1.00;;;;;;5035777;28;20060;-61
2023/05/10 02:04:09;;;;;;;15.45;13.63;;;16.70;1.00;;;;;;5034265;28;20045;-61
2023/05/10 02:06:38;;;;;;;16.55;14.85;;;16.70;1.00;;;;;;5035201;28;20227;-61
2023/05/10 02:09:04;;;;;;;18.20;14.63;;;16.70;1.00;;;;;;5036192;28;20028;-61
2023/05/10 02:11:31;;;;;;;14.45;12.95;;;16.60;1.00;;;;;;5034273;28;20037;-61
2023/05/10 02:13:58;;;;;;;15.50;12.98;;;16.50;1.00;;;;;;5034198;28;20037;-61
2023/05/10 02:16:26;;;;;;;14.88;13.10;;;16.40;1.00;;;;;;5034435;28;20028;-61
2023/05/10 02:18:54;;;;;;;13.68;12.10;;;16.50;1.00;;;;;;5038795;28;20040;-61
2023/05/10 02:21:21;;;;;;;15.32;13.75;;;16.50;1.00;;;;;;5034127;28;20036;-61
2023/05/10 02:23:49;;;;;;;14.43;12.90;;;16.50;1.00;;;;;;5036759;28;20041;-61
2023/05/10 02:26:16;;;;;;;15.80;14.10;;;16.50;1.00;;;;;;5032483;28;20601;-61
2023/05/10 02:28:42;;;;;;;13.60;12.07;;;16.50;1.00;;;;;;5036173;28;20053;-61
2023/05/10 02:31:10;;;;;;;14.40;12.90;;;16.50;1.00;;;;;;5034657;28;20044;-61
2023/05/10 02:33:39;;;;;;;14.52;11.90;;;16.50;1.00;;;;;;5042794;28;20029;-61
2023/05/10 02:36:06;;;;;;;13.45;11.55;;;16.50;1.00;;;;;;5038195;28;20041;-61
2023/05/10 02:38:33;;;;;;;12.57;11.15;;;16.50;1.00;;;;;;5035675;28;20048;-61
2023/05/10 02:40:59;;;;;;;13.15;11.73;;;16.50;1.00;;;;;;5036748;28;20060;-61
2023/05/10 02:43:25;;;;;;;11.10;9.95;;;16.60;1.00;;;;;;5035363;28;20037;-61
2023/05/10 02:45:51;;;;;;;11.60;9.68;;;16.50;1.00;;;;;;5035655;28;20045;-61
2023/05/10 02:48:17;;;;;;;10.15;9.18;;;16.50;1.00;;;;;;5035633;28;20025;-61
2023/05/10 02:50:51;;;;;;;10.23;9.32;;;16.60;1.00;;;;;;5043372;28;20021;-61
2023/05/10 02:53:22;;;;;;;11.07;9.48;;;16.50;1.00;;;;;;5040787;28;20433;-61
2023/05/10 02:55:52;;;;;;;11.00;9.65;;;16.50;1.00;;;;;;5035408;28;20053;-61
2023/05/10 02:58:19;;;;;;;11.70;8.75;;;16.50;1.00;;;;;;5035295;28;20025;-61
2023/05/10 03:00:46;;;;;;;10.02;9.07;;;16.50;1.00;;;;;;5034645;28;20033;-62
2023/05/10 03:03:11;;;;;;;10.75;9.20;;;16.40;1.00;;;;;;5033342;28;20091;-62
2023/05/10 03:05:37;;;;;;;11.23;9.65;;;16.40;1.00;;;;;;5031567;28;20132;-62
2023/05/10 03:08:24;;;;;;;9.10;8.20;;;16.40;1.00;;;;;;5033061;28;20383;-61
2023/05/10 03:11:15;;;;;;;9.75;8.43;;;16.40;1.00;;;;;;5028480;28;20021;-61
2023/05/10 03:14:00;;;;;;;9.65;8.35;;;16.40;1.00;;;;;;5033568;28;20037;-61
2023/05/10 03:16:34;;;;;;;10.25;8.48;;;16.30;1.00;;;;;;5022327;28;20029;-61
2023/05/10 03:19:18;;;;;;;11.23;8.93;;;16.30;1.00;;;;;;5031803;28;20467;-61
2023/05/10 03:21:50;;;;;;;9.77;8.75;;;16.30;1.00;;;;;;5034934;28;20487;-62
2023/05/10 03:24:19;;;;;;;9.75;8.60;;;16.40;1.00;;;;;;5034539;28;20022;-62
2023/05/10 03:26:45;;;;;;;10.52;9.43;;;16.40;1.00;;;;;;5034025;28;20128;-62
2023/05/10 03:29:14;;;;;;;8.80;8.00;;;16.50;1.00;;;;;;5032956;28;20108;-62
2023/05/10 03:31:39;;;;;;;9.13;8.23;;;16.40;1.00;;;;;;5033870;28;20480;-61
2023/05/10 03:34:06;;;;;;;10.15;9.15;;;16.20;1.00;;;;;;5034451;28;20028;-62
2023/05/10 03:36:32;;;;;;;8.70;7.80;;;16.30;1.00;;;;;;5032985;28;20025;-62
2023/05/10 03:38:57;;;;;;;10.95;8.23;;;16.30;1.00;;;;;;5032214;28;20025;-62
2023/05/10 03:41:23;;;;;;;9.88;8.95;;;16.20;1.00;;;;;;5034171;28;20056;-62
2023/05/10 03:43:49;;;;;;;10.02;8.80;;;16.40;1.00;;;;;;5039577;28;20029;-61
2023/05/10 03:46:15;;;;;;;9.10;7.85;;;16.40;1.00;;;;;;5034596;28;20033;-61
2023/05/10 03:48:40;;;;;;;9.07;7.47;;;16.30;1.00;;;;;;5033104;28;20082;-62
2023/05/10 03:51:06;;;;;;;9.18;8.27;;;16.30;1.00;;;;;;5033511;28;20055;-62
2023/05/10 03:53:31;;;;;;;8.45;7.57;;;16.20;1.00;;;;;;5033816;28;20108;-62
2023/05/10 03:55:57;;;;;;;8.20;7.10;;;16.20;1.00;;;;;;5032948;28;20025;-62
2023/05/10 03:58:23;;;;;;;8.43;6.90;;;16.10;1.00;;;;;;5033480;28;20022;-62
2023/05/10 04:00:48;;;;;;;8.35;7.53;;;16.10;1.00;;;;;;5033649;28;20060;-62
2023/05/10 04:03:14;;;;;;;8.57;7.68;;;16.10;1.00;;;;;;5033258;28;20446;-62
2023/05/10 04:05:40;;;;;;;9.40;7.50;;;16.20;1.00;;;;;;5027729;28;20421;-62
2023/05/10 04:08:06;;;;;;;9.43;7.60;;;16.20;1.00;;;;;;5032221;28;20017;-62
2023/05/10 04:10:32;;;;;;;8.52;7.63;;;16.20;1.00;;;;;;5031050;28;20032;-62
2023/05/10 04:12:57;;;;;;;8.13;7.28;;;16.20;1.00;;;;;;5033887;28;20022;-62
2023/05/10 04:15:23;;;;;;;7.95;7.15;;;16.10;1.00;;;;;;5032587;28;20037;-62
2023/05/10 04:17:49;;;;;;;8.63;7.72;;;16.10;1.00;;;;;;5032162;28;20053;-62
2023/05/10 04:20:15;;;;;;;7.80;7.00;;;16.00;1.00;;;;;;5032009;28;20037;-62
2023/05/10 04:22:40;;;;;;;7.85;7.05;;;16.00;1.00;;;;;;5015142;28;20037;-62
2023/05/10 04:25:07;;;;;;;8.10;6.85;;;16.10;1.00;;;;;;5032903;28;20094;-62
2023/05/10 04:27:32;;;;;;;8.23;7.43;;;16.00;1.00;;;;;;5032811;28;20476;-62
2023/05/10 04:29:58;;;;;;;9.07;7.80;;;16.00;1.00;;;;;;5033766;28;20048;-62
2023/05/10 04:32:24;;;;;;;8.48;7.15;;;16.20;1.00;;;;;;5031342;28;20395;-62
2023/05/10 04:34:51;;;;;;;8.35;7.10;;;16.10;99.90;;;;;;5031838;28;20056;-62
2023/05/10 04:37:16;;;;;;;9.63;7.00;;;16.10;99.90;;;;;;5031112;28;20036;-62
2023/05/10 04:39:42;;;;;;;8.80;6.57;;;16.10;1.00;;;;;;5031346;28;20038;-62
2023/05/10 04:42:08;;;;;;;7.28;6.18;;;16.10;1.00;;;;;;5033054;28;20110;-62
2023/05/10 04:44:34;;;;;;;7.47;6.78;;;15.90;1.00;;;;;;5033320;28;20395;-62
2023/05/10 04:46:59;;;;;;;7.22;6.15;;;15.90;1.00;;;;;;5031252;28;20025;-62
2023/05/10 04:49:25;;;;;;;7.97;7.13;;;15.80;1.00;;;;;;5032433;28;20464;-62
2023/05/10 04:51:51;;;;;;;8.38;6.45;;;15.80;1.00;;;;;;5031131;28;20033;-62
2023/05/10 04:54:16;;;;;;;7.72;6.93;;;15.80;1.00;;;;;;5031538;28;20035;-62
2023/05/10 04:56:42;;;;;;;7.15;5.95;;;15.90;1.00;;;;;;5032662;28;20026;-62
2023/05/10 04:59:08;;;;;;;7.55;6.07;;;15.80;1.00;;;;;;5033273;28;20026;-62
2023/05/10 05:01:33;;;;;;;7.35;6.22;;;15.70;1.00;;;;;;5033049;28;20431;-62
2023/05/10 05:04:00;;;;;;;7.60;5.68;;;15.70;1.00;;;;;;5032919;28;20048;-63
2023/05/10 05:06:26;;;;;;;5.53;5.00;;;15.70;1.00;;;;;;5032915;28;20037;-62
2023/05/10 05:08:52;;;;;;;7.30;6.60;;;15.80;1.00;;;;;;5033169;28;20162;-63
2023/05/10 05:11:18;;;;;;;6.10;5.50;;;15.80;1.00;;;;;;5033316;28;20031;-62
2023/05/10 05:13:44;;;;;;;7.40;6.60;;;15.70;1.00;;;;;;5032864;28;20356;-62
2023/05/10 05:16:10;;;;;;;7.45;5.22;;;15.70;1.00;;;;;;5033072;28;20494;-62
2023/05/10 05:18:36;;;;;;;7.75;6.20;;;15.70;1.00;;;;;;5032848;28;20017;-62
2023/05/10 05:21:02;;;;;;;6.95;6.25;;;15.80;1.00;;;;;;5032817;28;20156;-62
2023/05/10 05:23:27;;;;;;;7.78;6.47;;;15.70;1.00;;;;;;5032860;28;20119;-63
2023/05/10 05:25:53;;;;;;;9.40;6.82;;;15.80;1.00;;;;;;5032766;28;20108;-62
2023/05/10 05:28:20;;;;;;;6.55;5.82;;;15.80;1.00;;;;;;5033400;28;20018;-62
2023/05/10 05:30:45;;;;;;;6.65;6.00;;;15.80;1.00;;;;;;5035563;28;20035;-62
2023/05/10 05:33:13;;;;;;;7.13;6.53;;;15.80;1.00;;;;;;5037028;28;20104;-63
2023/05/10 05:35:38;;;;;;;9.27;6.65;;;15.70;1.00;;;;;;5036999;28;20379;-62
2023/05/10 05:38:04;;;;;;;11.38;6.80;;;15.70;1.00;;;;;;5036970;28;20022;-62
2023/05/10 05:40:30;;;;;;;6.78;6.18;;;15.70;1.00;;;;;;5036838;28;20450;-62
2023/05/10 05:42:55;;;;;;;7.50;6.65;;;15.70;1.00;;;;;;5036636;28;20056;-62
2023/05/10 05:45:21;;;;;;;7.70;6.57;;;15.70;1.00;;;;;;5036788;28;20037;-62
2023/05/10 05:47:47;;;;;;;7.93;6.30;;;15.60;1.00;;;;;;5036838;28;20040;-63
2023/05/10 05:50:12;;;;;;;7.65;6.90;;;15.70;1.00;;;;;;5032643;28;20018;-62
2023/05/10 05:52:38;;;;;;;8.70;7.85;;;15.80;1.00;;;;;;5036538;28;20079;-62
2023/05/10 05:55:04;;;;;;;8.88;7.85;;;15.90;1.00;;;;;;5035153;28;20040;-63
2023/05/10 05:57:30;;;;;;;8.15;7.28;;;15.90;1.00;;;;;;5036572;28;20021;-62
2023/05/10 05:59:55;;;;;;;9.00;7.82;;;15.90;1.00;;;;;;5036755;28;20387;-62
2023/05/10 06:02:21;;;;;;;7.95;7.15;;;15.80;1.00;;;;;;5036326;28;20025;-62
2023/05/10 06:04:47;;;;;;;8.00;7.15;;;15.90;1.00;;;;;;5036191;28;20037;-63
2023/05/10 06:07:12;;;;;;;8.35;7.53;;;15.90;1.00;;;;;;5036299;28;20017;-62
2023/05/10 06:09:38;;;;;;;7.78;7.05;;;15.80;1.00;;;;;;5036460;28;20026;-62
2023/05/10 06:12:04;;;;;;;8.25;7.40;;;15.70;1.00;;;;;;5036006;28;20029;-62
2023/05/10 06:14:29;;;;;;;7.75;6.97;;;15.80;1.00;;;;;;5036197;28;20060;-62
2023/05/10 06:16:55;;;;;;;7.75;6.47;;;15.80;1.00;;;;;;5036328;28;20109;-62
2023/05/10 06:19:20;;;;;;;7.47;6.50;;;15.80;1.00;;;;;;5036074;28;20052;-62
2023/05/10 06:21:46;;;;;;;8.18;6.85;;;15.90;1.00;;;;;;5035906;28;20120;-62
2023/05/10 06:24:12;;;;;;;11.60;6.90;;;15.80;1.00;;;;;;5035832;28;20793;-62
2023/05/10 06:26:38;;;;;;;7.88;7.15;;;15.80;1.00;;;;;;5036042;28;20021;-62
2023/05/10 06:29:03;;;;;;;12.98;8.02;;;15.90;1.00;;;;;;5035813;28;20025;-62
2023/05/10 06:31:29;;;;;;;7.90;7.18;;;15.90;1.00;;;;;;5033155;28;20042;-62
2023/05/10 06:33:54;;;;;;;8.05;6.28;;;15.80;1.00;;;;;;5036079;28;20044;-62
2023/05/10 06:36:20;;;;;;;8.45;7.13;;;15.80;1.00;;;;;;5035962;28;20026;-62
2023/05/10 06:38:46;;;;;;;13.38;11.15;;;15.80;1.00;;;;;;5035784;28;20467;-62
2023/05/10 06:41:12;;;;;;;23.63;19.10;;;16.00;1.00;;;;;;5034742;28;20038;-62
2023/05/10 06:43:41;;;;;;;12.45;10.88;;;16.10;1.00;;;;;;5035681;28;20030;-62
2023/05/10 06:46:07;;;;;;;11.60;8.70;;;15.90;1.00;;;;;;5034165;28;20039;-62
2023/05/10 06:48:32;;;;;;;7.85;6.38;;;15.90;1.00;;;;;;5035450;28;20021;-62
2023/05/10 06:50:58;;;;;;;7.35;6.20;;;15.90;1.00;;;;;;5034151;28;20506;-62
2023/05/10 06:53:24;;;;;;;6.65;6.00;;;16.00;1.00;;;;;;5035443;28;20490;-62
2023/05/10 06:55:49;;;;;;;5.70;5.20;;;15.90;1.00;;;;;;5035383;28;20029;-62
2023/05/10 06:58:15;;;;;;;6.63;6.03;;;15.90;1.00;;;;;;5035258;28;20083;-62
2023/05/10 07:00:43;;;;;;;6.70;5.22;;;15.90;1.00;;;;;;5035301;28;20113;-62
2023/05/10 07:03:09;;;;;;;9.68;5.85;;;15.90;1.00;;;;;;5024811;28;20030;-62
2023/05/10 07:05:35;;;;;;;6.45;5.80;;;16.00;1.00;;;;;;5035137;28;20033;-62
2023/05/10 07:08:01;;;;;;;5.78;5.28;;;16.00;1.00;;;;;;5035421;28;20032;-62
2023/05/10 07:10:27;;;;;;;7.63;6.25;;;15.90;1.00;;;;;;5033797;28;20021;-62
2023/05/10 07:12:52;;;;;;;6.60;6.00;;;16.00;1.00;;;;;;5035071;28;20495;-62
2023/05/10 07:15:18;;;;;;;6.25;5.47;;;16.20;1.00;;;;;;5034912;28;20033;-62
2023/05/10 07:21:18;;;;;;;7.13;5.85;;;16.00;1.00;;;;;;5026201;28;20545;-62
2023/05/10 07:23:44;;;;;;;5.70;5.07;;;16.10;1.00;;;;;;5034828;28;20037;-62
2023/05/10 07:26:10;;;;;;;6.72;6.03;;;16.20;1.00;;;;;;5034638;28;20037;-63
2023/05/10 07:28:37;;;;;;;5.53;4.70;;;16.20;1.00;;;;;;5034890;28;20060;-60
2023/05/10 07:31:03;;;;;;;5.72;4.15;;;16.20;1.00;;;;;;5034743;28;20021;-61
2023/05/10 07:33:28;;;;;;;5.47;4.97;;;16.20;1.00;;;;;;5034768;28;20040;-61
2023/05/10 07:35:54;;;;;;;5.22;4.28;;;16.30;1.00;;;;;;5034667;28;20079;-61
2023/05/10 07:38:20;;;;;;;5.72;4.88;;;16.30;1.00;;;;;;5033219;28;20028;-59
2023/05/10 07:40:45;;;;;;;7.35;4.97;;;16.30;1.00;;;;;;5033258;28;20089;-59
2023/05/10 07:43:11;;;;;;;5.93;4.88;;;16.30;1.00;;;;;;5033176;28;20029;-63
2023/05/10 07:45:37;;;;;;;5.18;4.55;;;16.40;1.00;;;;;;5034701;28;20033;-71
2023/05/10 07:48:02;;;;;;;7.75;6.38;;;16.50;1.00;;;;;;5032260;28;20017;-60
2023/05/10 07:50:28;;;;;;;7.78;5.22;;;16.50;1.00;;;;;;5032566;28;20021;-62
2023/05/10 07:52:54;;;;;;;5.95;5.25;;;16.50;1.00;;;;;;5033010;28;20029;-77
2023/05/10 07:55:21;;;;;;;5.75;5.15;;;16.60;1.00;;;;;;5029679;28;20021;-63
2023/05/10 07:57:47;;;;;;;4.57;4.15;;;16.70;1.00;;;;;;5034195;28;20499;-60
2023/05/10 08:00:16;;;;;;;6.05;5.50;;;16.70;1.00;;;;;;5033555;28;20122;-60
2023/05/10 08:02:42;;;;;;;7.35;4.60;;;16.70;1.00;;;;;;5034068;28;20070;-60
2023/05/10 08:05:07;;;;;;;5.57;5.07;;;16.70;1.00;;;;;;5034257;28;20385;-62
2023/05/10 08:07:33;;;;;;;6.10;5.45;;;16.70;1.00;;;;;;5033966;28;20375;-60
2023/05/10 08:09:59;;;;;;;5.00;4.40;;;16.70;1.00;;;;;;5034063;28;20501;-75
2023/05/10 08:12:24;;;;;;;6.25;4.90;;;16.70;1.00;;;;;;5034532;28;20487;-74
2023/05/10 08:14:50;;;;;;;6.53;5.15;;;16.70;1.00;;;;;;5034200;28;20025;-68
2023/05/10 08:17:16;;;;;;;5.68;5.18;;;16.80;1.00;;;;;;5016746;28;20055;-69
2023/05/10 08:19:41;;;;;;;5.47;4.97;;;16.90;1.00;;;;;;5033485;28;20032;-65
2023/05/10 08:22:07;;;;;;;9.80;6.32;;;17.00;1.00;;;;;;5034134;28;20029;-70
2023/05/10 08:24:37;;;;;;;5.18;4.65;;;17.00;1.00;;;;;;5033852;28;20075;-70
2023/05/10 08:27:06;;;;;;;4.90;4.40;;;17.10;1.00;;;;;;5026816;28;20447;-77
2023/05/10 08:29:32;;;;;;;6.05;4.97;;;17.00;1.00;;;;;;5033784;28;20029;-74
2023/05/10 08:31:57;;;;;;;5.18;4.78;;;17.00;1.00;;;;;;5032668;28;20033;-73
2023/05/10 08:34:23;;;;;;;8.73;7.05;;;17.00;1.00;;;;;;5030103;28;20395;-71
2023/05/10 08:36:49;;;;;;;8.07;7.25;;;17.20;1.00;;;;;;5034118;28;20056;-65
2023/05/10 08:39:14;;;;;;;4.72;3.85;;;17.20;1.00;;;;;;5033446;28;20372;-70
2023/05/10 08:41:44;;;;;;;5.40;4.95;;;17.20;1.00;;;;;;5033356;28;20468;-64
2023/05/10 08:44:10;;;;;;;5.75;4.95;;;17.20;1.00;;;;;;5031559;28;20045;-62
2023/05/10 08:46:39;;;;;;;7.70;6.07;;;17.30;1.00;;;;;;5033317;28;20067;-62
2023/05/10 08:49:09;;;;;;;5.82;5.10;;;17.30;1.00;;;;;;5033439;28;20024;-64
2023/05/10 08:51:39;;;;;;;5.93;5.35;;;17.30;1.00;;;;;;5033275;28;20029;-62
2023/05/10 08:57:27;;;;;;;4.88;4.38;;;17.50;1.00;;;;;;5019251;28;20024;-65
2023/05/10 08:59:53;;;;;;;4.60;4.20;;;17.50;1.00;;;;;;5028388;28;20116;-63
2023/05/10 09:02:20;;;;;;;4.82;4.32;;;17.50;1.00;;;;;;5022826;28;20032;-60
2023/05/10 09:04:46;;;;;;;5.15;4.13;;;17.50;1.00;;;;;;5031887;28;20045;-64
2023/05/10 09:07:12;;;;;;;5.00;4.10;;;17.50;1.00;;;;;;5029461;28;20032;-61
2023/05/10 09:09:38;;;;;;;113.32;14.43;;;17.40;1.00;;;;;;5032369;28;20099;-61
2023/05/10 09:12:04;;;;;;;7.00;4.35;;;17.40;1.00;;;;;;5032802;28;20434;-61
2023/05/10 09:14:34;;;;;;;8.02;4.20;;;17.40;1.00;;;;;;5026301;28;20531;-60
2023/05/10 09:17:00;;;;;;;5.43;4.10;;;17.50;1.00;;;;;;5033397;28;20037;-60
2023/05/10 09:19:25;;;;;;;3.72;3.38;;;17.60;1.00;;;;;;5032857;28;20029;-60
2023/05/10 09:21:51;;;;;;;4.10;3.78;;;17.60;1.00;;;;;;5032976;28;20029;-61
2023/05/10 09:24:17;;;;;;;5.10;4.00;;;17.80;1.00;;;;;;5021598;28;20037;-55
2023/05/10 09:26:48;;;;;;;4.05;3.55;;;17.80;1.00;;;;;;5030064;28;20034;-56
2023/05/10 09:29:14;;;;;;;4.43;3.83;;;17.90;1.00;;;;;;5032929;28;20040;-62
2023/05/10 09:31:50;;;;;;;4.35;3.63;;;18.00;1.00;;;;;;5032727;28;20029;-58
2023/05/10 09:34:18;;;;;;;3.50;3.20;;;18.10;1.00;;;;;;5031429;28;20034;-63
2023/05/10 09:36:56;;;;;;;3.78;3.47;;;18.00;1.00;;;;;;5032768;28;20495;-63
2023/05/10 09:39:30;;;;;;;4.60;3.80;;;18.10;1.00;;;;;;5022216;28;20088;-56
2023/05/10 09:41:57;;;;;;;11.13;9.32;;;18.00;1.00;;;;;;5028436;28;20045;-64
2023/05/10 09:44:23;;;;;;;9.93;7.00;;;18.00;1.00;;;;;;5028309;28;20086;-61
2023/05/10 09:46:50;;;;;;;7.53;6.15;;;17.90;1.00;;;;;;5026797;28;20108;-64
2023/05/10 09:49:16;;;;;;;4.35;3.95;;;18.00;1.00;;;;;;5028828;28;20502;-61
2023/05/10 09:51:41;;;;;;;3.75;3.45;;;18.10;1.00;;;;;;5030472;28;20018;-65
2023/05/10 09:54:12;;;;;;;4.57;4.18;;;18.10;1.00;;;;;;5029024;28;20139;-70
2023/05/10 09:56:40;;;;;;;5.70;4.88;;;18.20;1.00;;;;;;5026474;28;20052;-61
2023/05/10 09:59:07;;;;;;;4.75;4.07;;;18.30;1.00;;;;;;5029176;28;20384;-62
2023/05/10 10:01:34;;;;;;;3.53;3.22;;;18.20;1.00;;;;;;5029203;28;20026;-63
2023/05/10 10:04:06;;;;;;;4.75;3.70;;;18.30;1.00;;;;;;5028837;28;20033;-66
2023/05/10 10:06:39;;;;;;;3.17;2.88;;;18.20;1.00;;;;;;5029089;28;20420;-65
2023/05/10 10:09:06;;;;;;;4.50;3.20;;;18.20;1.00;;;;;;5028993;28;20025;-66
2023/05/10 10:11:33;;;;;;;4.57;3.78;;;18.30;1.00;;;;;;5028278;28;20487;-60
2023/05/10 10:13:59;;;;;;;3.67;3.10;;;18.40;1.00;;;;;;5027015;28;20025;-60
2023/05/10 10:16:28;;;;;;;4.70;3.30;;;18.30;1.00;;;;;;5028681;28;20042;-60
2023/05/10 10:18:54;;;;;;;3.97;3.65;;;18.30;1.00;;;;;;5031310;28;20042;-62
2023/05/10 10:21:21;;;;;;;4.40;3.53;;;18.20;1.00;;;;;;5031906;28;20037;-59
2023/05/10 10:23:46;;;;;;;4.07;3.70;;;18.10;1.00;;;;;;5030465;28;20376;-59
2023/05/10 10:26:12;;;;;;;3.60;3.30;;;18.20;1.00;;;;;;5027594;28;20044;-58
2023/05/10 10:29:09;;;;;;;3.75;3.38;;;18.20;1.00;;;;;;5033113;28;20434;-59
2023/05/10 10:31:41;;;;;;;4.30;3.35;;;18.20;1.00;;;;;;5029665;28;20014;-58
2023/05/10 10:34:09;;;;;;;3.78;3.47;;;18.20;1.00;;;;;;5031513;28;20044;-58
2023/05/10 10:36:45;;;;;;;4.30;3.85;;;18.10;1.00;;;;;;5031530;28;20022;-58
2023/05/10 10:39:11;;;;;;;7.78;7.07;;;18.00;1.00;;;;;;5033071;28;20104;-58
2023/05/10 10:41:42;;;;;;;6.70;6.07;;;18.00;1.00;;;;;;5031337;28;20037;-56
2023/05/10 10:44:30;;;;;;;6.70;6.03;;;18.10;1.00;;;;;;5028798;28;20029;-56
2023/05/10 10:47:29;;;;;;;4.30;3.90;;;18.10;1.00;;;;;;5028632;28;20088;-56
2023/05/10 10:49:58;;;;;;;4.63;4.20;;;18.10;1.00;;;;;;5028884;28;20559;-56
2023/05/10 10:52:35;;;;;;;4.25;3.88;;;18.00;1.00;;;;;;5033196;28;20026;-55
2023/05/10 10:55:06;;;;;;;6.47;4.32;;;18.10;1.00;;;;;;5034682;28;20021;-54
2023/05/10 10:57:41;;;;;;;4.45;3.75;;;18.00;1.00;;;;;;5028486;28;20447;-57
2023/05/10 11:00:22;;;;;;;5.22;4.28;;;18.00;1.00;;;;;;5035236;28;20060;-55
2023/05/10 11:02:56;;;;;;;5.03;4.15;;;18.00;1.00;;;;;;5035552;28;20025;-56
2023/05/10 11:05:29;;;;;;;4.93;4.30;;;17.90;1.00;;;;;;5035179;28;20040;-55
2023/05/10 11:07:56;;;;;;;4.93;4.25;;;18.00;1.00;;;;;;5033491;28;20021;-55
2023/05/10 11:10:23;;;;;;;5.30;4.80;;;18.00;1.00;;;;;;5035127;28;20029;-54
2023/05/10 11:13:06;;;;;;;5.53;4.25;;;18.00;1.00;;;;;;5035411;28;20113;-56
2023/05/10 11:15:37;;;;;;;3.85;3.55;;;17.90;1.00;;;;;;5035749;28;20471;-54
2023/05/10 11:18:31;;;;;;;4.53;4.13;;;17.90;1.00;;;;;;5035174;28;20037;-57
2023/05/10 11:21:09;;;;;;;4.88;4.05;;;17.90;1.00;;;;;;5035043;28;20040;-56
2023/05/10 11:23:46;;;;;;;5.40;4.13;;;17.90;1.00;;;;;;5033576;28;20018;-56
2023/05/10 11:26:12;;;;;;;4.35;3.60;;;17.90;1.00;;;;;;5033854;28;20044;-54
2023/05/10 11:28:45;;;;;;;4.03;3.63;;;17.80;1.00;;;;;;5035026;28;20097;-56
2023/05/10 11:31:14;;;;;;;4.93;4.43;;;17.80;1.00;;;;;;5034755;28;20029;-55
2023/05/10 11:33:54;;;;;;;16.65;5.47;;;17.90;1.00;;;;;;5034748;28;20022;-52
2023/05/10 11:36:33;;;;;;;8.23;4.43;;;17.80;1.00;;;;;;5034893;28;20029;-55
2023/05/10 11:38:58;;;;;;;4.93;3.97;;;17.70;1.00;;;;;;5034650;28;20032;-57
2023/05/10 11:41:26;;;;;;;4.50;3.92;;;17.70;1.00;;;;;;5034323;28;20045;-55
2023/05/10 11:43:55;;;;;;;5.38;4.45;;;17.80;1.00;;;;;;5032714;28;20034;-51
2023/05/10 11:46:24;;;;;;;5.05;4.65;;;17.80;1.00;;;;;;5034713;28;20033;-54
2023/05/10 11:48:51;;;;;;;5.20;4.70;;;17.90;1.00;;;;;;5034298;28;20535;-55
2023/05/10 11:51:24;;;;;;;6.22;4.75;;;17.80;1.00;;;;;;5034419;28;20060;-53
2023/05/10 11:53:53;;;;;;;5.00;4.60;;;17.70;1.00;;;;;;5034259;28;20028;-52
2023/05/10 11:56:21;;;;;;;5.97;5.38;;;17.70;1.00;;;;;;5034239;28;20479;-50
2023/05/10 11:58:53;;;;;;;6.05;5.18;;;17.80;1.00;;;;;;5034232;28;20117;-52
2023/05/10 12:01:22;;;;;;;5.85;5.18;;;17.80;1.00;;;;;;5027565;28;20493;-53
2023/05/10 12:03:59;;;;;;;6.10;5.50;;;17.70;1.00;;;;;;5034162;28;20082;-52
2023/05/10 12:06:28;;;;;;;7.30;6.00;;;17.60;1.00;;;;;;5033899;28;20029;-54
2023/05/10 12:08:53;;;;;;;19.45;13.98;;;17.60;1.00;;;;;;5034230;28;20022;-55
2023/05/10 12:11:21;;;;;;;11.23;8.35;;;17.80;1.00;;;;;;5033958;28;20025;-55
2023/05/10 12:13:47;;;;;;;10.13;7.40;;;17.80;1.00;;;;;;5034002;28;20017;-54
2023/05/10 12:16:15;;;;;;;7.80;5.82;;;17.80;1.00;;;;;;5033938;28;20052;-56
2023/05/10 12:18:42;;;;;;;7.05;5.38;;;17.80;1.00;;;;;;5033944;28;20040;-54
2023/05/10 12:21:10;;;;;;;5.97;4.63;;;17.90;1.00;;;;;;5019692;28;20040;-54
2023/05/10 12:23:36;;;;;;;5.15;4.65;;;18.00;1.00;;;;;;5034125;28;20030;-53
2023/05/10 12:26:05;;;;;;;4.60;4.20;;;18.10;1.00;;;;;;5033739;28;20044;-55
2023/05/10 12:28:32;;;;;;;4.43;4.03;;;18.30;1.00;;;;;;5033929;28;20022;-54
2023/05/10 12:30:59;;;;;;;4.45;4.07;;;18.40;1.00;;;;;;5033677;28;20041;-52
2023/05/10 12:33:25;;;;;;;3.60;3.30;;;18.60;1.00;;;;;;5033520;28;20053;-55
2023/05/10 12:35:53;;;;;;;4.20;3.83;;;18.60;1.00;;;;;;5033587;28;20064;-57
2023/05/10 12:38:37;;;;;;;4.43;3.85;;;18.60;1.00;;;;;;5027195;28;20470;-54
2023/05/10 12:41:08;;;;;;;8.05;6.82;;;18.80;1.00;;;;;;5026724;28;20049;-59
2023/05/10 12:43:35;;;;;;;5.28;4.72;;;18.90;1.00;;;;;;5030523;28;20104;-52
2023/05/10 12:46:05;;;;;;;4.70;4.25;;;19.10;1.00;;;;;;5032045;28;20041;-56
2023/05/10 12:48:31;;;;;;;3.97;3.67;;;19.80;1.00;;;;;;5032403;28;20057;-57
2023/05/10 12:50:57;;;;;;;5.22;4.68;;;20.40;1.00;;;;;;5030712;28;20482;-51
2023/05/10 12:53:23;;;;;;;4.10;3.60;;;20.10;1.00;;;;;;5029318;28;20029;-55
2023/05/10 12:55:48;;;;;;;4.53;4.13;;;19.60;1.00;;;;;;5031174;28;20036;-55
2023/05/10 12:58:14;;;;;;;5.18;4.00;;;19.40;1.00;;;;;;5031532;28;20129;-54
2023/05/10 13:00:39;;;;;;;4.45;3.72;;;19.30;1.00;;;;;;5033067;28;20531;-53
2023/05/10 13:03:05;;;;;;;4.15;3.72;;;19.20;1.00;;;;;;5031723;28;20029;-54